SAS223 EKYT-EKCH
Flight info
| Callsign | SAS223 |
|---|---|
| Flight time | 0h 38m |
| Altitude | 19000 |
| Route | DCT AAL T551 TESPI TESPI4A |
| Aircraft | AT76/M-SDFGIRY/S |
Departure
| Time | 2026-05-05 15:54 |
|---|---|
| Airport | Aalborg Airport (EKYT) |
Arrival
| Time | 2026-05-05 16:32 |
|---|---|
| Airport | Copenhagen Kastrup Airport (EKCH) |
| Time | Latitude | Longitude | Altitude | Speed | Heading |
|---|---|---|---|---|---|
| 2026-05-05 15:37 | 57.08612 | 9.87110 | 15 ft | 0 kts | 66° |
| 2026-05-05 15:47 | 57.08613 | 9.87111 | 15 ft | 0 kts | 53° |
| 2026-05-05 15:48 | 57.08614 | 9.87111 | 15 ft | 1 kts | 36° |
| 2026-05-05 15:48 | 57.08617 | 9.87105 | 15 ft | 0 kts | 332° |
| 2026-05-05 15:48 | 57.08615 | 9.87098 | 15 ft | 0 kts | 259° |
| 2026-05-05 15:48 | 57.08603 | 9.87077 | 16 ft | 5 kts | 226° |
| 2026-05-05 15:49 | 57.08594 | 9.87008 | 15 ft | 6 kts | 290° |
| 2026-05-05 15:49 | 57.08624 | 9.86942 | 15 ft | 12 kts | 315° |
| 2026-05-05 15:49 | 57.08672 | 9.86855 | 15 ft | 8 kts | 316° |
| 2026-05-05 15:49 | 57.08751 | 9.86731 | 15 ft | 24 kts | 323° |
| 2026-05-05 15:50 | 57.08875 | 9.86556 | 15 ft | 19 kts | 322° |
| 2026-05-05 15:50 | 57.08967 | 9.86422 | 14 ft | 16 kts | 322° |
| 2026-05-05 15:50 | 57.09075 | 9.86271 | 14 ft | 23 kts | 322° |
| 2026-05-05 15:50 | 57.09217 | 9.86072 | 14 ft | 26 kts | 323° |
| 2026-05-05 15:51 | 57.09312 | 9.85946 | 14 ft | 10 kts | 339° |
| 2026-05-05 15:51 | 57.09350 | 9.86023 | 14 ft | 16 kts | 81° |
| 2026-05-05 15:51 | 57.09372 | 9.86353 | 18 ft | 30 kts | 83° |
| 2026-05-05 15:51 | 57.09394 | 9.86696 | 15 ft | 25 kts | 83° |
| 2026-05-05 15:52 | 57.09417 | 9.86994 | 14 ft | 23 kts | 86° |
| 2026-05-05 15:52 | 57.09433 | 9.87310 | 14 ft | 27 kts | 85° |
| 2026-05-05 15:52 | 57.09453 | 9.87636 | 14 ft | 24 kts | 80° |
| 2026-05-05 15:52 | 57.09493 | 9.87747 | 15 ft | 5 kts | 7° |
| 2026-05-05 15:53 | 57.09530 | 9.87753 | 15 ft | 6 kts | 5° |
| 2026-05-05 15:53 | 57.09574 | 9.87746 | 18 ft | 13 kts | 342° |
| 2026-05-05 15:53 | 57.09637 | 9.87497 | 13 ft | 39 kts | 262° |
| 2026-05-05 15:53 | 57.09604 | 9.86967 | 14 ft | 84 kts | 265° |
| 2026-05-05 15:54 | 57.09502 | 9.85593 | 95 ft | 126 kts | 264° |
| 2026-05-05 15:54 | 57.09238 | 9.83548 | 993 ft | 127 kts | 261° |
| 2026-05-05 15:54 | 57.09083 | 9.82445 | 1359 ft | 137 kts | 258° |
| 2026-05-05 15:54 | 57.08857 | 9.80708 | 1966 ft | 145 kts | 260° |
| 2026-05-05 15:55 | 57.08632 | 9.78860 | 2616 ft | 151 kts | 261° |
| 2026-05-05 15:55 | 57.08408 | 9.76941 | 3283 ft | 156 kts | 255° |
| 2026-05-05 15:55 | 57.07673 | 9.75479 | 3959 ft | 167 kts | 201° |
| 2026-05-05 15:55 | 57.06510 | 9.75694 | 4627 ft | 179 kts | 150° |
| 2026-05-05 15:56 | 57.05760 | 9.77490 | 5253 ft | 185 kts | 105° |
| 2026-05-05 15:56 | 57.05553 | 9.79825 | 5900 ft | 186 kts | 98° |
| 2026-05-05 15:56 | 57.05384 | 9.82207 | 6547 ft | 189 kts | 97° |
| 2026-05-05 15:56 | 57.05242 | 9.84622 | 7174 ft | 191 kts | 95° |
| 2026-05-05 15:57 | 57.05113 | 9.87069 | 7821 ft | 193 kts | 95° |
| 2026-05-05 15:57 | 57.04701 | 9.89312 | 8486 ft | 187 kts | 135° |
| 2026-05-05 15:57 | 57.04508 | 9.89678 | 8628 ft | 185 kts | 146° |
| 2026-05-05 15:58 | 57.03960 | 9.90272 | 8947 ft | 172 kts | 169° |
| 2026-05-05 15:58 | 57.02819 | 9.90394 | 9591 ft | 163 kts | 190° |
| 2026-05-05 15:58 | 57.01636 | 9.90362 | 10001 ft | 179 kts | 190° |
| 2026-05-05 15:58 | 57.00321 | 9.90255 | 10304 ft | 199 kts | 189° |
| 2026-05-05 15:59 | 56.98885 | 9.90294 | 10606 ft | 217 kts | 184° |
| 2026-05-05 15:59 | 56.97323 | 9.90657 | 10918 ft | 234 kts | 176° |
| 2026-05-05 15:59 | 56.95693 | 9.91408 | 11224 ft | 247 kts | 170° |
| 2026-05-05 15:59 | 56.94030 | 9.92430 | 11541 ft | 256 kts | 167° |
| 2026-05-05 16:00 | 56.92347 | 9.93531 | 11837 ft | 263 kts | 167° |
| 2026-05-05 16:00 | 56.90598 | 9.94666 | 12140 ft | 268 kts | 168° |
| 2026-05-05 16:00 | 56.88812 | 9.95758 | 12450 ft | 271 kts | 169° |
| 2026-05-05 16:00 | 56.87026 | 9.96817 | 12762 ft | 274 kts | 169° |
| 2026-05-05 16:01 | 56.85192 | 9.97906 | 13075 ft | 277 kts | 169° |
| 2026-05-05 16:01 | 56.83353 | 9.98999 | 13399 ft | 279 kts | 169° |
| 2026-05-05 16:01 | 56.81519 | 10.00087 | 13710 ft | 281 kts | 170° |
| 2026-05-05 16:01 | 56.79647 | 10.01197 | 14000 ft | 282 kts | 170° |
| 2026-05-05 16:02 | 56.77770 | 10.02310 | 14286 ft | 283 kts | 170° |
| 2026-05-05 16:02 | 56.75914 | 10.03408 | 14573 ft | 284 kts | 170° |
| 2026-05-05 16:02 | 56.74040 | 10.04517 | 14867 ft | 284 kts | 170° |
| 2026-05-05 16:02 | 56.72158 | 10.05630 | 15163 ft | 284 kts | 170° |
| 2026-05-05 16:03 | 56.70283 | 10.06738 | 15464 ft | 283 kts | 170° |
| 2026-05-05 16:03 | 56.68409 | 10.07843 | 15761 ft | 283 kts | 171° |
| 2026-05-05 16:03 | 56.66526 | 10.08952 | 16061 ft | 283 kts | 171° |
| 2026-05-05 16:03 | 56.64651 | 10.10057 | 16369 ft | 282 kts | 171° |
| 2026-05-05 16:04 | 56.62812 | 10.11136 | 16669 ft | 281 kts | 171° |
| 2026-05-05 16:04 | 56.60944 | 10.12233 | 16995 ft | 280 kts | 171° |
| 2026-05-05 16:04 | 56.59094 | 10.13316 | 17309 ft | 279 kts | 171° |
| 2026-05-05 16:04 | 56.57254 | 10.14394 | 17625 ft | 278 kts | 171° |
| 2026-05-05 16:05 | 56.55408 | 10.15471 | 17945 ft | 277 kts | 171° |
| 2026-05-05 16:05 | 56.53593 | 10.16535 | 18268 ft | 276 kts | 171° |
| 2026-05-05 16:05 | 56.51776 | 10.17596 | 18548 ft | 272 kts | 171° |
| 2026-05-05 16:05 | 56.49972 | 10.18647 | 18792 ft | 273 kts | 172° |
| 2026-05-05 16:06 | 56.48163 | 10.19698 | 18870 ft | 274 kts | 171° |
| 2026-05-05 16:06 | 56.46329 | 10.20766 | 18915 ft | 279 kts | 171° |
| 2026-05-05 16:06 | 56.44464 | 10.21841 | 18932 ft | 288 kts | 171° |
| 2026-05-05 16:06 | 56.42526 | 10.22947 | 18945 ft | 294 kts | 171° |
| 2026-05-05 16:07 | 56.40563 | 10.24067 | 18952 ft | 300 kts | 171° |
| 2026-05-05 16:07 | 56.38554 | 10.25228 | 18952 ft | 305 kts | 170° |
| 2026-05-05 16:07 | 56.36518 | 10.26404 | 18956 ft | 308 kts | 170° |
| 2026-05-05 16:07 | 56.34469 | 10.27597 | 18949 ft | 311 kts | 170° |
| 2026-05-05 16:08 | 56.32424 | 10.28792 | 18952 ft | 313 kts | 170° |
| 2026-05-05 16:08 | 56.30337 | 10.29996 | 18951 ft | 314 kts | 170° |
| 2026-05-05 16:08 | 56.28271 | 10.31183 | 18958 ft | 315 kts | 170° |
| 2026-05-05 16:08 | 56.26175 | 10.32419 | 18949 ft | 316 kts | 169° |
| 2026-05-05 16:09 | 56.24087 | 10.33637 | 18955 ft | 316 kts | 170° |
| 2026-05-05 16:09 | 56.22001 | 10.34841 | 18957 ft | 317 kts | 170° |
| 2026-05-05 16:09 | 56.19888 | 10.36054 | 18954 ft | 317 kts | 170° |
| 2026-05-05 16:09 | 56.17808 | 10.37245 | 18952 ft | 317 kts | 170° |
| 2026-05-05 16:10 | 56.15695 | 10.38455 | 18953 ft | 318 kts | 169° |
| 2026-05-05 16:10 | 56.13602 | 10.39653 | 18952 ft | 318 kts | 170° |
| 2026-05-05 16:10 | 56.11489 | 10.40859 | 18953 ft | 318 kts | 170° |
| 2026-05-05 16:10 | 56.09374 | 10.42065 | 18950 ft | 318 kts | 169° |
| 2026-05-05 16:11 | 56.07257 | 10.43271 | 18958 ft | 318 kts | 169° |
| 2026-05-05 16:11 | 56.00948 | 10.46858 | 18937 ft | 318 kts | 169° |
| 2026-05-05 16:12 | 55.98829 | 10.48059 | 18950 ft | 317 kts | 169° |
| 2026-05-05 16:12 | 55.94631 | 10.50437 | 18938 ft | 317 kts | 169° |
| 2026-05-05 16:13 | 55.89089 | 10.56680 | 18942 ft | 344 kts | 120° |
| 2026-05-05 16:13 | 55.88466 | 10.60820 | 18941 ft | 349 kts | 99° |
| 2026-05-05 16:13 | 55.88233 | 10.65072 | 18942 ft | 349 kts | 97° |
| 2026-05-05 16:14 | 55.87454 | 10.73627 | 18778 ft | 353 kts | 106° |
| 2026-05-05 16:14 | 55.86288 | 10.82098 | 18344 ft | 353 kts | 106° |
| 2026-05-05 16:15 | 55.85236 | 10.90641 | 17549 ft | 353 kts | 104° |
| 2026-05-05 16:15 | 55.84125 | 10.99153 | 16961 ft | 349 kts | 108° |
| 2026-05-05 16:16 | 55.82869 | 11.07403 | 16471 ft | 345 kts | 108° |
| 2026-05-05 16:16 | 55.81659 | 11.15605 | 15994 ft | 343 kts | 107° |
| 2026-05-05 16:17 | 55.80446 | 11.23787 | 15529 ft | 341 kts | 107° |
| 2026-05-05 16:17 | 55.79835 | 11.27869 | 15302 ft | 340 kts | 107° |
| 2026-05-05 16:18 | 55.78621 | 11.35979 | 14848 ft | 339 kts | 107° |
| 2026-05-05 16:18 | 55.78018 | 11.40011 | 14648 ft | 339 kts | 107° |
| 2026-05-05 16:18 | 55.76940 | 11.48161 | 14223 ft | 339 kts | 100° |
| 2026-05-05 16:19 | 55.76671 | 11.52330 | 14014 ft | 338 kts | 97° |
| 2026-05-05 16:19 | 55.76425 | 11.56466 | 13809 ft | 332 kts | 98° |
| 2026-05-05 16:19 | 55.75822 | 11.64292 | 13298 ft | 310 kts | 100° |
| 2026-05-05 16:20 | 55.74764 | 11.71280 | 12795 ft | 285 kts | 131° |
| 2026-05-05 16:20 | 55.71595 | 11.75790 | 11954 ft | 304 kts | 147° |
| 2026-05-05 16:21 | 55.68649 | 11.81189 | 10935 ft | 305 kts | 131° |
| 2026-05-05 16:22 | 55.64826 | 11.90040 | 9438 ft | 298 kts | 131° |
| 2026-05-05 16:22 | 55.62234 | 11.95701 | 8405 ft | 291 kts | 131° |
| 2026-05-05 16:23 | 55.59738 | 12.01160 | 7437 ft | 283 kts | 130° |
| 2026-05-05 16:23 | 55.58508 | 12.03849 | 6955 ft | 276 kts | 130° |
| 2026-05-05 16:23 | 55.56185 | 12.08892 | 6003 ft | 256 kts | 130° |
| 2026-05-05 16:24 | 55.55063 | 12.11286 | 5492 ft | 250 kts | 129° |
| 2026-05-05 16:24 | 55.53973 | 12.13597 | 5010 ft | 244 kts | 129° |
| 2026-05-05 16:24 | 55.51874 | 12.18143 | 4202 ft | 231 kts | 127° |
| 2026-05-05 16:25 | 55.50872 | 12.20319 | 3803 ft | 226 kts | 128° |
| 2026-05-05 16:25 | 55.48943 | 12.24498 | 3148 ft | 211 kts | 128° |
| 2026-05-05 16:25 | 55.48043 | 12.26438 | 3032 ft | 196 kts | 127° |
| 2026-05-05 16:26 | 55.46461 | 12.29854 | 2975 ft | 163 kts | 127° |
| 2026-05-05 16:26 | 55.44896 | 12.33452 | 2588 ft | 218 kts | 116° |
| 2026-05-05 16:27 | 55.44640 | 12.35943 | 2533 ft | 199 kts | 80° |
| 2026-05-05 16:27 | 55.44907 | 12.38309 | 2511 ft | 196 kts | 63° |
| 2026-05-05 16:27 | 55.45773 | 12.40062 | 2502 ft | 181 kts | 36° |
| 2026-05-05 16:27 | 55.46720 | 12.41427 | 2501 ft | 177 kts | 36° |
| 2026-05-05 16:28 | 55.47695 | 12.42783 | 2491 ft | 181 kts | 34° |
| 2026-05-05 16:28 | 55.48702 | 12.44172 | 2479 ft | 181 kts | 34° |
| 2026-05-05 16:28 | 55.49663 | 12.45546 | 2490 ft | 179 kts | 37° |
| 2026-05-05 16:28 | 55.50615 | 12.47022 | 2340 ft | 179 kts | 38° |
| 2026-05-05 16:29 | 55.51525 | 12.48500 | 2086 ft | 176 kts | 38° |
| 2026-05-05 16:29 | 55.52414 | 12.49880 | 1856 ft | 164 kts | 37° |
| 2026-05-05 16:29 | 55.53229 | 12.51125 | 1644 ft | 146 kts | 37° |
| 2026-05-05 16:29 | 55.53948 | 12.52224 | 1464 ft | 126 kts | 35° |
| 2026-05-05 16:30 | 55.54583 | 12.53205 | 1280 ft | 126 kts | 36° |
| 2026-05-05 16:30 | 55.55207 | 12.54163 | 1123 ft | 115 kts | 34° |
| 2026-05-05 16:30 | 55.55805 | 12.55084 | 957 ft | 115 kts | 37° |
| 2026-05-05 16:30 | 55.56398 | 12.55987 | 797 ft | 111 kts | 37° |
| 2026-05-05 16:31 | 55.56985 | 12.56887 | 630 ft | 111 kts | 37° |
| 2026-05-05 16:31 | 55.57542 | 12.57797 | 468 ft | 107 kts | 39° |
| 2026-05-05 16:31 | 55.58125 | 12.58684 | 364 ft | 113 kts | 35° |
| 2026-05-05 16:31 | 55.58696 | 12.59572 | 247 ft | 108 kts | 35° |
| 2026-05-05 16:32 | 55.59263 | 12.60432 | 110 ft | 106 kts | 37° |
| 2026-05-05 16:32 | 55.59805 | 12.61273 | 27 ft | 102 kts | 36° |
| 2026-05-05 16:32 | 55.60318 | 12.62027 | 17 ft | 85 kts | 40° |
| 2026-05-05 16:32 | 55.60682 | 12.62596 | 22 ft | 47 kts | 42° |
| 2026-05-05 16:33 | 55.60806 | 12.62767 | 21 ft | 15 kts | 34° |
| 2026-05-05 16:33 | 55.60897 | 12.62841 | 22 ft | 14 kts | 12° |
| 2026-05-05 16:33 | 55.61003 | 12.62874 | 19 ft | 17 kts | 11° |
| 2026-05-05 16:33 | 55.61120 | 12.62923 | 21 ft | 17 kts | 20° |
| 2026-05-05 16:34 | 55.61216 | 12.63048 | 23 ft | 17 kts | 41° |
| 2026-05-05 16:34 | 55.61284 | 12.63160 | 24 ft | 10 kts | 46° |
| 2026-05-05 16:34 | 55.61327 | 12.63231 | 25 ft | 8 kts | 42° |
| 2026-05-05 16:34 | 55.61365 | 12.63290 | 22 ft | 7 kts | 41° |
| 2026-05-05 16:35 | 55.61395 | 12.63336 | 22 ft | 5 kts | 40° |
| 2026-05-05 16:35 | 55.61438 | 12.63402 | 24 ft | 18 kts | 41° |
| 2026-05-05 16:35 | 55.61568 | 12.63598 | 20 ft | 25 kts | 45° |
| 2026-05-05 16:35 | 55.61677 | 12.63766 | 21 ft | 17 kts | 41° |
| 2026-05-05 16:36 | 55.61754 | 12.63888 | 26 ft | 16 kts | 42° |
| 2026-05-05 16:36 | 55.61880 | 12.64073 | 23 ft | 31 kts | 34° |
| 2026-05-05 16:36 | 55.62086 | 12.64247 | 15 ft | 31 kts | 19° |
| 2026-05-05 16:36 | 55.62259 | 12.64381 | 14 ft | 22 kts | 21° |
| 2026-05-05 16:37 | 55.62379 | 12.64447 | 15 ft | 15 kts | 15° |
| 2026-05-05 16:37 | 55.62452 | 12.64485 | 18 ft | 7 kts | 27° |
| 2026-05-05 16:37 | 55.62462 | 12.64565 | 18 ft | 10 kts | 111° |
| 2026-05-05 16:37 | 55.62414 | 12.64712 | 18 ft | 16 kts | 114° |
| 2026-05-05 16:38 | 55.62420 | 12.64846 | 17 ft | 8 kts | 89° |
| 2026-05-05 16:38 | 55.62422 | 12.64918 | 17 ft | 1 kts | 88° |
| 2026-05-05 16:38 | 55.62422 | 12.64922 | 17 ft | 0 kts | 86° |